This is the latest recevied weather packets stored in our database for station/object JH5HTX-13. If no packets are shown the sender has not sent any weather packets the latest 1 day(s).
| Time | Temp. | Humidity | Pressure | Rain* | Wind** | Luminosity | Snow |
|---|---|---|---|---|---|---|---|
| 1777974665 | 20° C | 54% | 1018.5 hPa | 0 mm | 0 m/s | - | - |
| 1777973765 | 21.67° C | 49% | 1018.4 hPa | 0 mm | 0 m/s | - | - |
| 1777972864 | 21.11° C | 50% | 1018.4 hPa | 0 mm | 0 m/s | - | - |
| 1777971965 | 20.56° C | 50% | 1018.3 hPa | 0 mm | 0 m/s | - | - |
| 1777971064 | 21.11° C | 49% | 1018.2 hPa | 0 mm | 0 m/s | - | - |
| 1777970164 | 21.67° C | 47% | 1018.1 hPa | 0 mm | 0 m/s | - | - |
| 1777969264 | 22.22° C | 46% | 1018 hPa | 0 mm | 0 m/s | - | - |
| 1777968364 | 22.22° C | 45% | 1017.9 hPa | 0 mm | 0 m/s | - | - |
| 1777967464 | 22.22° C | 45% | 1017.9 hPa | 0 mm | 0 m/s | - | - |
| 1777966564 | 22.78° C | 44% | 1017.9 hPa | 0 mm | 0 m/s | - | - |
| 1777965664 | 22.22° C | 44% | 1017.9 hPa | 0 mm | 0 m/s | - | - |
| 1777964764 | 22.22° C | 45% | 1017.9 hPa | 0 mm | 0 m/s | - | - |
| 1777963863 | 22.22° C | 46% | 1018 hPa | 0 mm | 0 m/s | - | - |
| 1777962963 | 22.22° C | 47% | 1017.9 hPa | 0 mm | 0 m/s | - | - |
| 1777962063 | 22.22° C | 47% | 1018.1 hPa | 0 mm | 0 m/s | - | - |
| 1777961163 | 21.67° C | 50% | 1018.2 hPa | 0 mm | 0 m/s | - | - |
| 1777960263 | 21.67° C | 49% | 1018.4 hPa | 0 mm | 0 m/s | - | - |
| 1777959363 | 21.67° C | 52% | 1018.5 hPa | 0 mm | 0 m/s | - | - |
| 1777958463 | 21.11° C | 54% | 1018.7 hPa | 0 mm | 0 m/s | - | - |
| 1777957563 | 20.56° C | 54% | 1019 hPa | 0 mm | 0 m/s | - | - |
| 1777956663 | 20.56° C | 54% | 1019.3 hPa | 0 mm | 0 m/s | - | - |
| 1777955763 | 20° C | 56% | 1019.3 hPa | 0 mm | 0 m/s | - | - |
* Rain latest hour (hover to see other rain measurements)
** Current wind speed in m/s (hover to see current wind gust speed)